createdAt,value
2023-02-14T00:01:46.102Z,32.10
2023-02-14T00:04:14.551Z,31.48
2023-02-14T00:06:44.967Z,35.50
2023-02-14T00:09:15.221Z,36.13
2023-02-14T00:11:44.236Z,33.72
2023-02-14T00:14:31.123Z,38.05
2023-02-14T00:16:59.429Z,34.97
2023-02-14T00:19:27.981Z,42.70
2023-02-14T00:21:57.586Z,34.03
2023-02-14T00:24:27.623Z,37.70
2023-02-14T00:26:55.932Z,34.95
2023-02-14T00:29:25.708Z,29.50
2023-02-14T00:31:54.216Z,35.17
2023-02-14T00:34:22.851Z,31.25
2023-02-14T00:36:51.140Z,35.72
2023-02-14T00:39:21.763Z,44.85
2023-02-14T00:41:50.046Z,33.83
2023-02-14T00:44:18.494Z,39.97
2023-02-14T00:46:46.718Z,32.15
2023-02-14T00:49:14.980Z,34.83
2023-02-14T00:51:43.438Z,34.00
2023-02-14T00:54:11.722Z,35.42
2023-02-14T00:56:41.372Z,32.75
2023-02-14T00:59:09.564Z,32.05
2023-02-14T01:01:37.975Z,35.08
2023-02-14T01:04:06.394Z,31.38
2023-02-14T01:06:35.396Z,37.90
2023-02-14T01:09:04.030Z,36.35
2023-02-14T01:11:32.210Z,29.80
2023-02-14T01:14:02.221Z,28.58
2023-02-14T01:16:31.460Z,30.08
2023-02-14T01:19:00.752Z,30.35
2023-02-14T01:21:31.538Z,33.63
2023-02-14T01:24:01.931Z,32.88
2023-02-14T01:26:31.064Z,32.03
2023-02-14T01:28:59.502Z,46.92
2023-02-14T01:31:32.007Z,34.15
2023-02-14T01:34:00.812Z,39.42
2023-02-14T01:36:30.861Z,36.03
2023-02-14T01:39:02.383Z,38.00
2023-02-14T01:41:33.119Z,42.33
2023-02-14T01:44:03.430Z,41.92
2023-02-14T01:46:34.902Z,36.13
2023-02-14T01:49:10.330Z,46.05
2023-02-14T01:54:09.835Z,37.20
2023-02-14T01:56:41.524Z,47.75
2023-02-14T01:59:14.017Z,31.27
2023-02-14T02:01:44.041Z,40.65
2023-02-14T02:04:17.430Z,43.75
2023-02-14T02:06:50.258Z,36.70
2023-02-14T02:09:24.217Z,35.55
2023-02-14T02:11:52.949Z,41.13
2023-02-14T02:14:23.384Z,35.95
2023-02-14T02:17:06.369Z,42.97
2023-02-14T02:20:25.157Z,35.88
2023-02-14T02:23:31.125Z,30.52
2023-02-14T02:26:39.829Z,33.53
2023-02-14T02:29:57.612Z,48.40
2023-02-14T02:32:47.792Z,38.05
2023-02-14T02:35:39.635Z,32.50
2023-02-14T02:38:27.512Z,35.80
2023-02-14T02:41:05.363Z,32.63
2023-02-14T02:43:44.844Z,34.97
2023-02-14T02:46:36.178Z,36.28
2023-02-14T02:49:13.017Z,28.38
2023-02-14T02:52:24.569Z,30.50
2023-02-14T02:54:56.872Z,31.85
2023-02-14T02:57:28.646Z,36.08
2023-02-14T02:59:58.744Z,34.28
2023-02-14T03:02:31.880Z,30.30
2023-02-14T03:05:03.301Z,28.23
2023-02-14T03:07:37.226Z,34.85
2023-02-14T03:10:10.607Z,34.60
2023-02-14T03:13:04.242Z,32.33
2023-02-14T03:15:42.269Z,30.67
2023-02-14T03:18:17.689Z,32.13
2023-02-14T03:23:24.717Z,32.97
2023-02-14T03:26:03.616Z,29.23
2023-02-14T03:28:39.977Z,35.60
2023-02-14T03:31:16.372Z,34.25
2023-02-14T03:33:51.363Z,35.53
2023-02-14T03:36:24.193Z,36.28
2023-02-14T03:38:59.247Z,35.63
2023-02-14T03:41:33.330Z,35.60
2023-02-14T03:44:04.679Z,30.85
2023-02-14T03:46:38.318Z,30.02
2023-02-14T03:49:11.874Z,33.58
2023-02-14T03:51:41.887Z,35.38
2023-02-14T03:54:15.878Z,32.35
2023-02-14T03:56:49.400Z,32.35
2023-02-14T03:59:22.766Z,31.90
2023-02-14T04:01:56.789Z,32.97
2023-02-14T04:04:29.070Z,34.08
2023-02-14T04:06:57.468Z,33.47
2023-02-14T04:09:27.152Z,31.77
2023-02-14T04:11:55.422Z,34.60
2023-02-14T04:14:25.284Z,30.13
2023-02-14T04:17:10.629Z,30.58
2023-02-14T04:19:38.720Z,32.00
2023-02-14T04:22:06.955Z,27.90
2023-02-14T04:24:36.466Z,35.55
2023-02-14T04:27:13.769Z,29.30
2023-02-14T04:29:43.905Z,30.17
2023-02-14T04:32:14.381Z,31.85
2023-02-14T04:34:43.441Z,35.25
2023-02-14T04:37:11.913Z,29.75
2023-02-14T04:39:41.656Z,27.30
2023-02-14T04:42:10.214Z,25.33
2023-02-14T04:44:39.327Z,29.67
2023-02-14T04:47:08.680Z,29.10
2023-02-14T04:49:37.578Z,28.42
2023-02-14T04:52:06.247Z,32.88
2023-02-14T04:54:34.962Z,27.15
2023-02-14T04:57:04.533Z,33.25
2023-02-14T04:59:32.720Z,30.48
2023-02-14T05:02:01.063Z,29.58
2023-02-14T05:04:29.310Z,30.23
2023-02-14T05:06:57.633Z,31.77
2023-02-14T05:09:25.989Z,23.88
2023-02-14T05:11:54.256Z,26.33
2023-02-14T05:14:24.034Z,28.55
2023-02-14T05:16:52.284Z,31.25
2023-02-14T05:19:20.615Z,27.67
2023-02-14T05:21:48.821Z,31.90
2023-02-14T05:24:17.293Z,22.50
2023-02-14T05:26:45.653Z,25.90
2023-02-14T05:29:14.294Z,24.35
2023-02-14T05:31:44.011Z,26.08
2023-02-14T05:34:12.406Z,25.63
2023-02-14T05:36:40.864Z,28.98
2023-02-14T05:39:09.096Z,32.60
2023-02-14T05:44:05.228Z,22.80
2023-02-14T05:46:33.412Z,22.88
2023-02-14T05:49:03.202Z,24.38
2023-02-14T05:51:31.455Z,28.90
2023-02-14T05:54:01.144Z,24.27
2023-02-14T05:56:29.391Z,25.95
2023-02-14T05:58:57.687Z,24.48
2023-02-14T06:01:25.874Z,28.13
2023-02-14T06:03:54.107Z,23.73
2023-02-14T06:06:23.665Z,29.75
2023-02-14T06:08:51.947Z,22.95
2023-02-14T06:11:20.137Z,25.88
2023-02-14T06:13:48.432Z,30.50
2023-02-14T06:16:16.586Z,26.83
2023-02-14T06:18:45.445Z,27.65
2023-02-14T06:21:13.642Z,26.10
2023-02-14T06:23:43.234Z,23.98
2023-02-14T06:26:11.508Z,24.38
2023-02-14T06:28:39.955Z,30.60
2023-02-14T06:31:08.477Z,25.60
2023-02-14T06:33:36.860Z,25.90
2023-02-14T06:36:05.400Z,25.35
2023-02-14T06:38:33.598Z,24.40
2023-02-14T06:41:06.275Z,27.58
2023-02-14T06:43:35.446Z,30.88
2023-02-14T06:46:04.207Z,42.33
2023-02-14T06:48:32.505Z,30.10
2023-02-14T06:51:01.090Z,24.55
2023-02-14T06:53:29.731Z,56.60
2023-02-14T06:55:58.397Z,40.92
2023-02-14T06:58:28.124Z,28.50
2023-02-14T07:00:56.666Z,22.77
2023-02-14T07:03:24.944Z,27.83
2023-02-14T07:05:53.690Z,27.17
2023-02-14T07:08:24.163Z,24.92
2023-02-14T07:10:58.113Z,23.63
2023-02-14T07:13:28.264Z,24.42
2023-02-14T07:15:56.524Z,29.67
2023-02-14T07:18:24.997Z,24.92
2023-02-14T07:20:53.497Z,24.98
2023-02-14T07:23:21.860Z,25.88
2023-02-14T07:25:50.297Z,29.92
2023-02-14T07:28:18.455Z,31.23
2023-02-14T07:30:48.163Z,36.65
2023-02-14T07:33:44.548Z,31.95
2023-02-14T07:38:41.109Z,31.95
2023-02-14T07:41:09.626Z,37.90
2023-02-14T07:43:39.686Z,48.75
2023-02-14T07:46:09.745Z,39.80
2023-02-14T07:48:39.668Z,48.38
2023-02-14T07:51:07.986Z,61.33
2023-02-14T07:53:36.204Z,48.38
2023-02-14T07:56:04.356Z,53.03
2023-02-14T07:58:32.926Z,52.78
2023-02-14T08:01:01.847Z,48.10
2023-02-14T08:03:33.653Z,43.22
2023-02-14T08:06:01.936Z,46.45
2023-02-14T08:08:32.109Z,46.92
2023-02-14T08:11:02.132Z,44.63
2023-02-14T08:13:30.834Z,42.97
2023-02-14T08:16:06.149Z,45.47
2023-02-14T08:21:04.658Z,46.08
2023-02-14T08:23:33.229Z,41.10
2023-02-14T08:26:01.832Z,52.72
2023-02-14T08:28:32.421Z,50.42
2023-02-14T08:31:01.329Z,46.90
2023-02-14T08:33:30.322Z,47.63
2023-02-14T08:35:58.620Z,44.13
2023-02-14T08:38:28.632Z,47.63
2023-02-14T08:41:00.638Z,52.05
2023-02-14T08:43:29.466Z,48.53
2023-02-14T08:45:58.452Z,52.20
2023-02-14T08:48:27.197Z,46.85
2023-02-14T08:50:55.449Z,47.50
2023-02-14T08:53:23.698Z,44.60
2023-02-14T08:55:53.290Z,43.35
2023-02-14T08:58:21.587Z,45.75
2023-02-14T09:00:49.874Z,49.35
2023-02-14T09:03:18.234Z,49.53
2023-02-14T09:05:46.394Z,44.53
2023-02-14T09:08:14.925Z,48.72
2023-02-14T09:10:48.887Z,46.88
2023-02-14T09:13:18.525Z,56.55
2023-02-14T09:15:46.813Z,50.03
2023-02-14T09:18:16.159Z,45.03
2023-02-14T09:20:45.928Z,46.13
2023-02-14T09:23:14.163Z,44.63
2023-02-14T09:25:42.660Z,50.92
2023-02-14T09:28:11.208Z,49.70
2023-02-14T09:30:40.793Z,50.67
2023-02-14T09:33:09.370Z,49.75
2023-02-14T09:35:37.975Z,48.90
2023-02-14T09:38:05.622Z,46.72
2023-02-14T09:40:34.611Z,41.50
2023-02-14T09:43:09.910Z,45.25
2023-02-14T09:45:41.044Z,45.25
2023-02-14T09:48:16.642Z,45.13
2023-02-14T09:50:49.913Z,45.25
2023-02-14T09:53:22.850Z,41.28
2023-02-14T09:55:55.872Z,38.60
2023-02-14T09:58:27.968Z,43.45
2023-02-14T10:01:01.341Z,39.88
2023-02-14T10:03:53.988Z,44.65
2023-02-14T10:06:33.535Z,35.28
2023-02-14T10:09:04.983Z,40.72
2023-02-14T10:11:33.605Z,42.17
2023-02-14T10:14:06.190Z,37.97
2023-02-14T10:16:40.030Z,40.88
2023-02-14T10:19:19.810Z,42.22
2023-02-14T10:21:51.163Z,42.15
2023-02-14T10:24:21.779Z,39.70
2023-02-14T10:26:51.331Z,38.47
2023-02-14T10:29:22.173Z,37.25
2023-02-14T10:31:58.810Z,41.40
2023-02-14T10:34:32.725Z,41.17
2023-02-14T10:37:06.756Z,41.67
2023-02-14T10:39:41.119Z,38.22
2023-02-14T10:42:17.230Z,41.92
2023-02-14T10:44:49.731Z,40.05
2023-02-14T10:47:39.731Z,34.42
2023-02-14T10:50:13.124Z,37.50
2023-02-14T10:52:47.138Z,40.58
2023-02-14T10:55:32.083Z,35.25
2023-02-14T10:58:04.185Z,36.55
2023-02-14T11:00:34.295Z,39.55
2023-02-14T11:03:08.205Z,33.53
2023-02-14T11:05:37.913Z,37.92
2023-02-14T11:08:15.422Z,37.28
2023-02-14T11:10:44.412Z,37.72
2023-02-14T11:13:27.687Z,38.15
2023-02-14T11:15:56.336Z,45.45
2023-02-14T11:18:31.984Z,42.42
2023-02-14T11:21:10.034Z,36.88
2023-02-14T11:23:42.218Z,42.10
2023-02-14T11:26:18.044Z,39.60
2023-02-14T11:28:53.411Z,42.13
2023-02-14T11:31:31.318Z,41.78
2023-02-14T11:34:04.832Z,38.22
2023-02-14T11:36:41.350Z,37.15
2023-02-14T11:39:22.324Z,39.20
2023-02-14T11:41:52.008Z,39.67
2023-02-14T11:44:23.593Z,39.00
2023-02-14T11:46:53.675Z,45.90
2023-02-14T11:49:33.435Z,39.15
2023-02-14T11:52:11.171Z,41.55
2023-02-14T11:54:41.909Z,40.92
2023-02-14T11:57:15.285Z,38.58
2023-02-14T11:59:46.904Z,34.47
2023-02-14T12:02:25.334Z,38.08
2023-02-14T12:04:58.239Z,42.90
2023-02-14T12:07:28.894Z,37.05
2023-02-14T12:10:17.754Z,35.05
2023-02-14T12:13:00.993Z,38.47
2023-02-14T12:15:37.920Z,37.75
2023-02-14T12:18:40.500Z,37.00
2023-02-14T12:21:21.833Z,33.20
2023-02-14T12:24:00.153Z,38.60
2023-02-14T12:26:33.175Z,35.63
2023-02-14T12:29:07.354Z,35.58
2023-02-14T12:31:35.614Z,35.92
2023-02-14T12:34:04.773Z,33.58
2023-02-14T12:37:05.024Z,34.90
2023-02-14T12:39:39.310Z,36.60
2023-02-14T12:42:23.665Z,30.38
2023-02-14T12:44:59.925Z,34.53
2023-02-14T12:47:37.850Z,32.75
2023-02-14T12:50:24.696Z,39.22
2023-02-14T12:53:22.608Z,34.63
2023-02-14T12:56:01.204Z,38.30
2023-02-14T12:58:47.714Z,36.80
2023-02-14T13:01:39.196Z,29.25
2023-02-14T13:04:41.063Z,33.45
2023-02-14T13:07:18.817Z,38.78
2023-02-14T13:09:53.309Z,34.60
2023-02-14T13:12:36.210Z,34.53
2023-02-14T13:15:20.556Z,37.50
2023-02-14T13:17:53.832Z,44.92
2023-02-14T13:20:36.707Z,31.90
2023-02-14T13:23:07.919Z,34.50
2023-02-14T13:25:41.920Z,33.40
2023-02-14T13:28:14.973Z,35.00
2023-02-14T13:30:43.270Z,34.88
2023-02-14T13:33:29.326Z,36.70
2023-02-14T13:36:01.975Z,32.97
2023-02-14T13:38:32.306Z,35.28
2023-02-14T13:41:02.959Z,38.95
2023-02-14T13:43:48.762Z,37.83
2023-02-14T13:46:19.479Z,37.00
2023-02-14T13:48:59.606Z,34.08
2023-02-14T13:51:45.247Z,35.22
2023-02-14T13:54:30.985Z,37.35
2023-02-14T13:59:31.422Z,35.85
2023-02-14T14:02:32.967Z,35.42
2023-02-14T14:05:01.198Z,32.47
2023-02-14T14:07:31.454Z,35.72
2023-02-14T14:10:02.642Z,40.35
2023-02-14T14:12:52.265Z,30.17
2023-02-14T14:15:22.040Z,34.33
2023-02-14T14:18:29.214Z,33.58
2023-02-14T14:20:58.685Z,35.50
2023-02-14T14:23:37.299Z,33.97
2023-02-14T14:26:30.980Z,33.42
2023-02-14T14:28:59.961Z,34.10
2023-02-14T14:31:30.282Z,36.20
2023-02-14T14:34:02.970Z,32.92
2023-02-14T14:36:31.233Z,33.47
2023-02-14T14:38:59.422Z,33.13
2023-02-14T14:41:31.312Z,28.23
2023-02-14T14:44:00.962Z,30.63
2023-02-14T14:46:30.680Z,35.80
2023-02-14T14:48:59.245Z,36.40
2023-02-14T14:51:30.456Z,33.28
2023-02-14T14:54:01.278Z,31.15
2023-02-14T14:56:32.144Z,34.20
2023-02-14T14:59:17.864Z,32.33
2023-02-14T15:01:47.992Z,36.42
2023-02-14T15:04:19.981Z,40.20
2023-02-14T15:06:49.814Z,31.67
2023-02-14T15:09:23.781Z,34.40
2023-02-14T15:12:12.158Z,34.28
2023-02-14T15:14:43.707Z,36.70
2023-02-14T15:17:20.183Z,30.95
2023-02-14T15:19:51.656Z,28.63
2023-02-14T15:22:22.660Z,32.25
2023-02-14T15:24:51.950Z,35.90
2023-02-14T15:27:23.389Z,37.05
2023-02-14T15:29:56.678Z,34.05
2023-02-14T15:32:27.381Z,31.60
2023-02-14T15:34:57.136Z,33.33
2023-02-14T15:37:26.422Z,39.85
2023-02-14T15:39:57.174Z,31.50
2023-02-14T15:42:29.427Z,40.53
2023-02-14T15:45:16.139Z,31.73
2023-02-14T15:47:47.822Z,33.17
2023-02-14T15:50:19.253Z,30.70
2023-02-14T15:52:49.013Z,31.02
2023-02-14T15:55:20.430Z,34.10
2023-02-14T15:57:55.477Z,36.85
2023-02-14T16:00:25.229Z,32.97
2023-02-14T16:02:58.125Z,35.13
2023-02-14T16:05:28.430Z,32.85
2023-02-14T16:07:58.750Z,35.00
2023-02-14T16:10:28.154Z,29.95
2023-02-14T16:12:59.492Z,38.70
2023-02-14T16:15:29.919Z,29.40
2023-02-14T16:18:01.127Z,29.48
2023-02-14T16:20:42.184Z,37.92
2023-02-14T16:23:23.276Z,36.83
2023-02-14T16:25:52.075Z,42.95
2023-02-14T16:28:20.998Z,52.35
2023-02-14T16:30:54.816Z,44.08
2023-02-14T16:33:27.616Z,39.55
2023-02-14T16:35:58.570Z,43.38
2023-02-14T16:38:27.100Z,39.92
2023-02-14T16:40:55.578Z,40.95
2023-02-14T16:43:23.866Z,36.28
2023-02-14T16:45:52.087Z,40.65
2023-02-14T16:48:20.287Z,36.38
2023-02-14T16:50:50.199Z,39.03
2023-02-14T16:53:26.379Z,34.55
2023-02-14T16:55:56.696Z,28.85
2023-02-14T16:58:29.426Z,28.75
2023-02-14T17:00:58.897Z,32.35
2023-02-14T17:03:27.359Z,36.63
2023-02-14T17:05:59.413Z,34.65
2023-02-14T17:08:28.188Z,31.60
2023-02-14T17:10:58.782Z,30.38
2023-02-14T17:13:28.843Z,29.58
2023-02-14T17:15:57.861Z,29.60
2023-02-14T17:18:26.832Z,33.90
2023-02-14T17:20:55.790Z,30.90
2023-02-14T17:23:25.430Z,33.45
2023-02-14T17:25:54.092Z,27.85
2023-02-14T17:28:22.385Z,30.17
2023-02-14T17:30:50.761Z,33.28
2023-02-14T17:33:20.023Z,34.00
2023-02-14T17:35:48.566Z,34.20
2023-02-14T17:38:16.818Z,28.10
2023-02-14T17:40:46.657Z,31.60
2023-02-14T17:43:15.111Z,42.42
2023-02-14T17:45:43.392Z,36.80
2023-02-14T17:48:11.891Z,30.10
2023-02-14T17:50:40.305Z,30.08
2023-02-14T17:53:09.576Z,34.25
2023-02-14T17:55:37.982Z,38.28
2023-02-14T17:58:07.652Z,39.53
2023-02-14T18:00:35.806Z,54.40
2023-02-14T18:03:04.184Z,41.47
2023-02-14T18:05:32.695Z,34.15
2023-02-14T18:08:00.995Z,35.92
2023-02-14T18:10:29.262Z,41.05
2023-02-14T18:12:59.840Z,39.83
2023-02-14T18:15:29.660Z,44.30
2023-02-14T18:17:58.233Z,33.92
2023-02-14T18:20:26.408Z,46.72
2023-02-14T18:22:54.551Z,47.53
2023-02-14T18:25:22.771Z,40.90
2023-02-14T18:27:51.235Z,34.40
2023-02-14T18:30:20.003Z,35.78
2023-02-14T18:32:49.628Z,38.60
2023-02-14T18:35:17.995Z,37.38
2023-02-14T18:37:46.227Z,44.53
2023-02-14T18:40:20.366Z,39.95
2023-02-14T18:42:48.615Z,45.85
2023-02-14T18:45:17.484Z,35.08
2023-02-14T18:47:45.646Z,37.35
2023-02-14T18:50:15.504Z,37.85
2023-02-14T18:52:44.632Z,38.92
2023-02-14T18:55:13.496Z,41.72
2023-02-14T18:57:41.886Z,40.17
2023-02-14T19:00:12.164Z,38.58
2023-02-14T19:02:40.483Z,36.25
2023-02-14T19:05:09.614Z,41.05
2023-02-14T19:07:39.496Z,37.55
2023-02-14T19:10:09.524Z,46.40
2023-02-14T19:12:37.785Z,46.28
2023-02-14T19:15:07.312Z,39.95
2023-02-14T19:17:36.234Z,40.65
2023-02-14T19:20:08.702Z,42.05
2023-02-14T19:22:40.461Z,44.58
2023-02-14T19:25:09.473Z,43.17
2023-02-14T19:27:38.401Z,54.03
2023-02-14T19:30:07.935Z,48.85
2023-02-14T19:32:38.635Z,37.95
2023-02-14T19:35:07.663Z,43.05
2023-02-14T19:37:36.020Z,41.17
2023-02-14T19:40:10.324Z,47.72
2023-02-14T19:42:38.545Z,40.53
2023-02-14T19:45:07.781Z,53.42
2023-02-14T19:47:46.696Z,55.40
2023-02-14T19:50:15.729Z,50.67
2023-02-14T19:52:44.699Z,44.67
2023-02-14T19:55:22.692Z,48.67
2023-02-14T19:57:51.175Z,51.25
2023-02-14T20:00:21.045Z,45.65
2023-02-14T20:02:49.907Z,44.28
2023-02-14T20:05:19.131Z,51.13
2023-02-14T20:07:49.248Z,38.83
2023-02-14T20:10:19.109Z,48.45
2023-02-14T20:12:48.019Z,63.05
2023-02-14T20:15:16.304Z,56.30
2023-02-14T20:17:44.948Z,45.80
2023-02-14T20:20:13.999Z,45.03
2023-02-14T20:22:42.388Z,50.05
2023-02-14T20:25:11.333Z,47.92
2023-02-14T20:27:41.218Z,53.33
2023-02-14T20:30:10.723Z,44.13
2023-02-14T20:32:39.076Z,46.53
2023-02-14T20:35:07.639Z,49.05
2023-02-14T20:37:36.423Z,43.03
2023-02-14T20:40:04.929Z,42.30
2023-02-14T20:42:33.100Z,40.70
2023-02-14T20:45:02.966Z,45.20
2023-02-14T20:47:31.207Z,47.95
2023-02-14T20:49:59.888Z,55.65
2023-02-14T20:52:28.417Z,42.80
2023-02-14T20:54:56.768Z,44.55
2023-02-14T20:57:25.534Z,35.63
2023-02-14T20:59:53.740Z,38.33
2023-02-14T21:02:23.395Z,42.03
2023-02-14T21:04:51.714Z,41.92
2023-02-14T21:07:19.939Z,49.22
2023-02-14T21:09:48.246Z,40.83
2023-02-14T21:12:16.720Z,48.20
2023-02-14T21:14:45.104Z,39.97
2023-02-14T21:17:13.607Z,39.35
2023-02-14T21:19:43.169Z,44.22
2023-02-14T21:22:11.374Z,42.65
2023-02-14T21:24:39.640Z,42.58
2023-02-14T21:27:07.934Z,45.15
2023-02-14T21:29:36.181Z,52.08
2023-02-14T21:32:06.523Z,44.63
2023-02-14T21:34:37.069Z,46.55
2023-02-14T21:37:08.519Z,38.88
2023-02-14T21:39:38.086Z,47.83
2023-02-14T21:42:07.604Z,45.05
2023-02-14T21:44:53.691Z,50.20
2023-02-14T21:47:21.888Z,45.40
2023-02-14T21:50:07.393Z,46.05
2023-02-14T21:52:37.111Z,45.92
2023-02-14T21:55:05.532Z,50.50
2023-02-14T21:57:34.137Z,52.25
2023-02-14T22:00:02.495Z,44.55
2023-02-14T22:02:31.072Z,51.70
2023-02-14T22:05:01.085Z,61.70
2023-02-14T22:07:29.504Z,60.03
2023-02-14T22:09:59.163Z,55.42
2023-02-14T22:12:27.281Z,48.78
2023-02-14T22:14:55.560Z,54.80
2023-02-14T22:17:23.784Z,51.00
2023-02-14T22:19:52.030Z,51.95
2023-02-14T22:22:20.315Z,50.30
2023-02-14T22:24:48.436Z,47.85
2023-02-14T22:27:18.120Z,68.15
2023-02-14T22:29:46.510Z,66.53
2023-02-14T22:32:14.823Z,58.63
2023-02-14T22:34:43.092Z,53.00
2023-02-14T22:37:11.292Z,53.10
2023-02-14T22:39:39.815Z,48.35
2023-02-14T22:42:10.118Z,54.03
2023-02-14T22:44:41.629Z,55.63
2023-02-14T22:47:09.857Z,50.28
2023-02-14T22:49:38.032Z,50.55
2023-02-14T22:52:06.619Z,45.92
2023-02-14T22:54:36.194Z,45.50
2023-02-14T22:57:04.535Z,59.05
2023-02-14T22:59:34.181Z,50.10
2023-02-14T23:02:05.197Z,51.75
2023-02-14T23:04:33.403Z,44.15
2023-02-14T23:07:03.022Z,50.10
2023-02-14T23:09:34.319Z,59.05
2023-02-14T23:12:25.508Z,51.08
2023-02-14T23:15:13.910Z,53.47
2023-02-14T23:18:02.247Z,50.90
2023-02-14T23:20:50.361Z,53.67
2023-02-14T23:23:19.823Z,51.03
2023-02-14T23:25:48.106Z,50.85
2023-02-14T23:28:17.483Z,54.67
2023-02-14T23:30:45.731Z,60.15
2023-02-14T23:33:15.403Z,60.03
2023-02-14T23:35:43.739Z,51.50
2023-02-14T23:38:13.044Z,50.53
2023-02-14T23:40:56.258Z,56.50
2023-02-14T23:43:24.497Z,59.80
2023-02-14T23:45:52.818Z,55.65
2023-02-14T23:48:22.580Z,50.17
2023-02-14T23:50:50.893Z,50.95
2023-02-14T23:53:19.889Z,62.70
2023-02-14T23:55:49.432Z,58.03
2023-02-14T23:58:19.077Z,60.38
